sensor_id;sensor_type;location;lat;lon;timestamp;P1;durP1;ratioP1;P2;durP2;ratioP2
65831;SDS011;52593;42.648;23.332;2023-10-13T00:01:01;7.75;;;3.40;;
65831;SDS011;52593;42.648;23.332;2023-10-13T00:03:29;8.20;;;3.60;;
65831;SDS011;52593;42.648;23.332;2023-10-13T00:05:57;9.27;;;4.00;;
65831;SDS011;52593;42.648;23.332;2023-10-13T00:08:27;8.10;;;3.40;;
65831;SDS011;52593;42.648;23.332;2023-10-13T00:10:54;10.17;;;3.67;;
65831;SDS011;52593;42.648;23.332;2023-10-13T00:13:25;9.60;;;3.47;;
65831;SDS011;52593;42.648;23.332;2023-10-13T00:15:54;8.55;;;3.90;;
65831;SDS011;52593;42.648;23.332;2023-10-13T00:18:27;9.32;;;3.75;;
65831;SDS011;52593;42.648;23.332;2023-10-13T00:20:58;9.98;;;3.50;;
65831;SDS011;52593;42.648;23.332;2023-10-13T00:23:43;9.67;;;3.47;;
65831;SDS011;52593;42.648;23.332;2023-10-13T00:26:21;8.57;;;3.67;;
65831;SDS011;52593;42.648;23.332;2023-10-13T00:28:57;7.57;;;3.38;;
65831;SDS011;52593;42.648;23.332;2023-10-13T00:31:33;8.52;;;3.38;;
65831;SDS011;52593;42.648;23.332;2023-10-13T00:34:03;7.90;;;3.30;;
65831;SDS011;52593;42.648;23.332;2023-10-13T00:36:47;9.80;;;3.57;;
65831;SDS011;52593;42.648;23.332;2023-10-13T00:39:31;8.93;;;2.97;;
65831;SDS011;52593;42.648;23.332;2023-10-13T00:42:01;7.68;;;2.95;;
65831;SDS011;52593;42.648;23.332;2023-10-13T00:44:32;9.23;;;3.55;;
65831;SDS011;52593;42.648;23.332;2023-10-13T00:47:08;12.20;;;3.40;;
65831;SDS011;52593;42.648;23.332;2023-10-13T00:49:47;11.07;;;3.60;;
65831;SDS011;52593;42.648;23.332;2023-10-13T00:52:13;9.77;;;3.28;;
65831;SDS011;52593;42.648;23.332;2023-10-13T00:54:44;9.93;;;3.30;;
65831;SDS011;52593;42.648;23.332;2023-10-13T00:57:14;8.77;;;3.10;;
65831;SDS011;52593;42.648;23.332;2023-10-13T00:59:54;7.82;;;3.38;;
65831;SDS011;52593;42.648;23.332;2023-10-13T01:02:21;8.07;;;3.13;;
65831;SDS011;52593;42.648;23.332;2023-10-13T01:05:02;8.05;;;3.10;;
65831;SDS011;52593;42.648;23.332;2023-10-13T01:07:28;8.53;;;3.17;;
65831;SDS011;52593;42.648;23.332;2023-10-13T01:09:54;9.30;;;3.42;;
65831;SDS011;52593;42.648;23.332;2023-10-13T01:12:20;8.80;;;3.60;;
65831;SDS011;52593;42.648;23.332;2023-10-13T01:14:48;7.50;;;3.20;;
65831;SDS011;52593;42.648;23.332;2023-10-13T01:17:14;8.43;;;3.17;;
65831;SDS011;52593;42.648;23.332;2023-10-13T01:19:39;7.97;;;3.57;;
65831;SDS011;52593;42.648;23.332;2023-10-13T01:22:08;7.28;;;2.92;;
65831;SDS011;52593;42.648;23.332;2023-10-13T01:24:34;9.95;;;3.67;;
65831;SDS011;52593;42.648;23.332;2023-10-13T01:27:03;9.53;;;3.43;;
65831;SDS011;52593;42.648;23.332;2023-10-13T01:29:43;8.18;;;3.50;;
65831;SDS011;52593;42.648;23.332;2023-10-13T01:32:18;7.97;;;3.70;;
65831;SDS011;52593;42.648;23.332;2023-10-13T01:34:44;8.05;;;3.28;;
65831;SDS011;52593;42.648;23.332;2023-10-13T01:37:11;7.60;;;3.27;;
65831;SDS011;52593;42.648;23.332;2023-10-13T01:39:37;10.32;;;3.95;;
65831;SDS011;52593;42.648;23.332;2023-10-13T01:42:02;8.37;;;3.33;;
65831;SDS011;52593;42.648;23.332;2023-10-13T01:44:28;7.40;;;3.37;;
65831;SDS011;52593;42.648;23.332;2023-10-13T01:47:04;8.67;;;3.17;;
65831;SDS011;52593;42.648;23.332;2023-10-13T01:49:34;6.95;;;2.92;;
65831;SDS011;52593;42.648;23.332;2023-10-13T01:52:29;13.40;;;3.25;;
65831;SDS011;52593;42.648;23.332;2023-10-13T01:54:54;8.50;;;3.30;;
65831;SDS011;52593;42.648;23.332;2023-10-13T01:57:20;11.30;;;3.65;;
65831;SDS011;52593;42.648;23.332;2023-10-13T01:59:49;10.05;;;3.65;;
65831;SDS011;52593;42.648;23.332;2023-10-13T02:02:15;8.55;;;3.08;;
65831;SDS011;52593;42.648;23.332;2023-10-13T02:04:52;9.75;;;3.70;;
65831;SDS011;52593;42.648;23.332;2023-10-13T02:07:22;10.77;;;3.33;;
65831;SDS011;52593;42.648;23.332;2023-10-13T02:09:55;7.90;;;3.38;;
65831;SDS011;52593;42.648;23.332;2023-10-13T02:12:21;8.35;;;3.60;;
65831;SDS011;52593;42.648;23.332;2023-10-13T02:15:06;9.23;;;3.80;;
65831;SDS011;52593;42.648;23.332;2023-10-13T02:17:32;10.17;;;4.00;;
65831;SDS011;52593;42.648;23.332;2023-10-13T02:20:07;8.00;;;3.22;;
65831;SDS011;52593;42.648;23.332;2023-10-13T02:22:35;9.98;;;3.38;;
65831;SDS011;52593;42.648;23.332;2023-10-13T02:25:03;8.32;;;3.35;;
65831;SDS011;52593;42.648;23.332;2023-10-13T02:27:32;7.80;;;3.30;;
65831;SDS011;52593;42.648;23.332;2023-10-13T02:30:06;9.07;;;3.72;;
65831;SDS011;52593;42.648;23.332;2023-10-13T02:32:38;9.73;;;3.53;;
65831;SDS011;52593;42.648;23.332;2023-10-13T02:35:05;8.40;;;3.78;;
65831;SDS011;52593;42.648;23.332;2023-10-13T02:37:34;8.23;;;3.47;;
65831;SDS011;52593;42.648;23.332;2023-10-13T02:40:01;8.63;;;3.57;;
65831;SDS011;52593;42.648;23.332;2023-10-13T02:42:26;8.60;;;3.78;;
65831;SDS011;52593;42.648;23.332;2023-10-13T02:44:52;10.23;;;3.80;;
65831;SDS011;52593;42.648;23.332;2023-10-13T02:47:22;12.00;;;4.35;;
65831;SDS011;52593;42.648;23.332;2023-10-13T02:49:49;9.70;;;4.03;;
65831;SDS011;52593;42.648;23.332;2023-10-13T02:52:15;8.80;;;4.00;;
65831;SDS011;52593;42.648;23.332;2023-10-13T02:54:40;12.67;;;3.23;;
65831;SDS011;52593;42.648;23.332;2023-10-13T02:57:17;7.75;;;3.17;;
65831;SDS011;52593;42.648;23.332;2023-10-13T02:59:43;8.35;;;3.60;;
65831;SDS011;52593;42.648;23.332;2023-10-13T03:02:15;9.60;;;3.47;;
65831;SDS011;52593;42.648;23.332;2023-10-13T03:04:57;8.20;;;3.22;;
65831;SDS011;52593;42.648;23.332;2023-10-13T03:07:34;10.55;;;3.83;;
65831;SDS011;52593;42.648;23.332;2023-10-13T03:10:03;10.50;;;3.70;;
65831;SDS011;52593;42.648;23.332;2023-10-13T03:12:38;11.88;;;3.92;;
65831;SDS011;52593;42.648;23.332;2023-10-13T03:15:07;9.63;;;3.57;;
65831;SDS011;52593;42.648;23.332;2023-10-13T03:17:38;8.60;;;3.50;;
65831;SDS011;52593;42.648;23.332;2023-10-13T03:20:09;8.30;;;3.50;;
65831;SDS011;52593;42.648;23.332;2023-10-13T03:22:38;10.20;;;4.40;;
65831;SDS011;52593;42.648;23.332;2023-10-13T03:25:03;18.57;;;4.10;;
65831;SDS011;52593;42.648;23.332;2023-10-13T03:27:34;7.68;;;3.60;;
65831;SDS011;52593;42.648;23.332;2023-10-13T03:30:26;9.45;;;3.65;;
65831;SDS011;52593;42.648;23.332;2023-10-13T03:33:10;9.10;;;3.65;;
65831;SDS011;52593;42.648;23.332;2023-10-13T03:35:40;8.50;;;3.47;;
65831;SDS011;52593;42.648;23.332;2023-10-13T03:38:11;11.32;;;4.32;;
65831;SDS011;52593;42.648;23.332;2023-10-13T03:40:46;10.10;;;3.33;;
65831;SDS011;52593;42.648;23.332;2023-10-13T03:43:13;8.43;;;3.72;;
65831;SDS011;52593;42.648;23.332;2023-10-13T03:45:46;8.35;;;3.83;;
65831;SDS011;52593;42.648;23.332;2023-10-13T03:48:14;8.97;;;3.90;;
65831;SDS011;52593;42.648;23.332;2023-10-13T03:50:50;9.10;;;3.72;;
65831;SDS011;52593;42.648;23.332;2023-10-13T03:53:31;10.38;;;4.05;;
65831;SDS011;52593;42.648;23.332;2023-10-13T03:56:04;9.88;;;3.58;;
65831;SDS011;52593;42.648;23.332;2023-10-13T03:58:39;9.55;;;3.42;;
65831;SDS011;52593;42.648;23.332;2023-10-13T04:01:11;8.00;;;3.40;;
65831;SDS011;52593;42.648;23.332;2023-10-13T04:03:40;8.05;;;3.70;;
65831;SDS011;52593;42.648;23.332;2023-10-13T04:06:21;11.75;;;3.92;;
65831;SDS011;52593;42.648;23.332;2023-10-13T04:09:07;9.18;;;4.05;;
65831;SDS011;52593;42.648;23.332;2023-10-13T04:11:51;9.45;;;3.85;;
65831;SDS011;52593;42.648;23.332;2023-10-13T04:14:28;8.87;;;3.63;;
65831;SDS011;52593;42.648;23.332;2023-10-13T04:17:20;9.60;;;3.50;;
65831;SDS011;52593;42.648;23.332;2023-10-13T04:19:49;9.82;;;3.88;;
65831;SDS011;52593;42.648;23.332;2023-10-13T04:22:34;10.55;;;3.83;;
65831;SDS011;52593;42.648;23.332;2023-10-13T04:25:17;9.73;;;4.07;;
65831;SDS011;52593;42.648;23.332;2023-10-13T04:28:03;8.83;;;3.87;;
65831;SDS011;52593;42.648;23.332;2023-10-13T04:30:41;8.65;;;3.60;;
65831;SDS011;52593;42.648;23.332;2023-10-13T04:36:18;11.93;;;4.00;;
65831;SDS011;52593;42.648;23.332;2023-10-13T04:38:52;10.15;;;3.90;;
65831;SDS011;52593;42.648;23.332;2023-10-13T04:41:28;9.13;;;3.57;;
65831;SDS011;52593;42.648;23.332;2023-10-13T04:44:03;9.02;;;3.22;;
65831;SDS011;52593;42.648;23.332;2023-10-13T04:46:48;10.02;;;3.60;;
65831;SDS011;52593;42.648;23.332;2023-10-13T04:49:14;9.60;;;3.63;;
65831;SDS011;52593;42.648;23.332;2023-10-13T04:51:58;10.97;;;3.43;;
65831;SDS011;52593;42.648;23.332;2023-10-13T04:54:34;8.88;;;3.60;;
65831;SDS011;52593;42.648;23.332;2023-10-13T04:57:17;10.73;;;3.58;;
65831;SDS011;52593;42.648;23.332;2023-10-13T04:59:55;11.50;;;4.05;;
65831;SDS011;52593;42.648;23.332;2023-10-13T05:02:40;11.65;;;4.07;;
65831;SDS011;52593;42.648;23.332;2023-10-13T05:07:38;9.77;;;4.10;;
65831;SDS011;52593;42.648;23.332;2023-10-13T05:10:23;12.55;;;4.53;;
65831;SDS011;52593;42.648;23.332;2023-10-13T05:13:07;11.45;;;3.83;;
65831;SDS011;52593;42.648;23.332;2023-10-13T05:15:51;12.48;;;4.10;;
65831;SDS011;52593;42.648;23.332;2023-10-13T05:18:35;10.30;;;4.30;;
65831;SDS011;52593;42.648;23.332;2023-10-13T05:21:20;13.63;;;4.60;;
65831;SDS011;52593;42.648;23.332;2023-10-13T05:24:04;10.57;;;4.20;;
65831;SDS011;52593;42.648;23.332;2023-10-13T05:26:48;12.98;;;4.18;;
65831;SDS011;52593;42.648;23.332;2023-10-13T05:29:32;13.35;;;5.03;;
65831;SDS011;52593;42.648;23.332;2023-10-13T05:32:16;11.10;;;4.57;;
65831;SDS011;52593;42.648;23.332;2023-10-13T05:35:00;9.18;;;4.20;;
65831;SDS011;52593;42.648;23.332;2023-10-13T05:37:44;11.43;;;4.82;;
65831;SDS011;52593;42.648;23.332;2023-10-13T05:40:28;11.27;;;4.90;;
65831;SDS011;52593;42.648;23.332;2023-10-13T05:43:12;10.82;;;5.13;;
65831;SDS011;52593;42.648;23.332;2023-10-13T05:46:03;10.40;;;5.10;;
65831;SDS011;52593;42.648;23.332;2023-10-13T05:49:01;12.70;;;5.05;;
65831;SDS011;52593;42.648;23.332;2023-10-13T05:51:37;12.05;;;5.50;;
65831;SDS011;52593;42.648;23.332;2023-10-13T05:54:12;12.07;;;4.82;;
65831;SDS011;52593;42.648;23.332;2023-10-13T05:59:29;14.27;;;5.83;;
65831;SDS011;52593;42.648;23.332;2023-10-13T06:02:17;14.35;;;5.40;;
65831;SDS011;52593;42.648;23.332;2023-10-13T06:05:03;13.75;;;5.75;;
65831;SDS011;52593;42.648;23.332;2023-10-13T06:07:51;12.68;;;5.47;;
65831;SDS011;52593;42.648;23.332;2023-10-13T06:10:36;21.50;;;5.93;;
65831;SDS011;52593;42.648;23.332;2023-10-13T06:13:21;12.90;;;5.30;;
65831;SDS011;52593;42.648;23.332;2023-10-13T06:16:06;13.57;;;6.00;;
65831;SDS011;52593;42.648;23.332;2023-10-13T06:18:50;12.43;;;5.32;;
65831;SDS011;52593;42.648;23.332;2023-10-13T06:21:34;17.23;;;5.88;;
65831;SDS011;52593;42.648;23.332;2023-10-13T06:24:18;13.55;;;5.90;;
65831;SDS011;52593;42.648;23.332;2023-10-13T06:27:10;17.17;;;6.73;;
65831;SDS011;52593;42.648;23.332;2023-10-13T06:29:54;17.40;;;6.32;;
65831;SDS011;52593;42.648;23.332;2023-10-13T06:32:20;17.05;;;6.15;;
65831;SDS011;52593;42.648;23.332;2023-10-13T06:34:50;14.70;;;6.57;;
65831;SDS011;52593;42.648;23.332;2023-10-13T06:37:31;13.35;;;5.50;;
65831;SDS011;52593;42.648;23.332;2023-10-13T06:39:59;14.90;;;6.20;;
65831;SDS011;52593;42.648;23.332;2023-10-13T06:42:31;11.82;;;5.75;;
65831;SDS011;52593;42.648;23.332;2023-10-13T06:44:59;13.20;;;6.03;;
65831;SDS011;52593;42.648;23.332;2023-10-13T06:47:33;13.17;;;5.67;;
65831;SDS011;52593;42.648;23.332;2023-10-13T06:50:05;15.02;;;6.55;;
65831;SDS011;52593;42.648;23.332;2023-10-13T06:52:40;13.57;;;6.15;;
65831;SDS011;52593;42.648;23.332;2023-10-13T06:55:07;16.42;;;5.70;;
65831;SDS011;52593;42.648;23.332;2023-10-13T06:57:35;25.55;;;6.57;;
65831;SDS011;52593;42.648;23.332;2023-10-13T07:00:08;14.57;;;6.70;;
65831;SDS011;52593;42.648;23.332;2023-10-13T07:02:37;18.02;;;6.63;;
65831;SDS011;52593;42.648;23.332;2023-10-13T07:05:03;13.30;;;6.30;;
65831;SDS011;52593;42.648;23.332;2023-10-13T07:07:38;12.73;;;6.43;;
65831;SDS011;52593;42.648;23.332;2023-10-13T07:10:08;13.00;;;6.47;;
65831;SDS011;52593;42.648;23.332;2023-10-13T07:12:37;15.35;;;6.95;;
65831;SDS011;52593;42.648;23.332;2023-10-13T07:15:06;16.55;;;7.53;;
65831;SDS011;52593;42.648;23.332;2023-10-13T07:17:41;16.40;;;6.73;;
65831;SDS011;52593;42.648;23.332;2023-10-13T07:20:10;16.05;;;7.55;;
65831;SDS011;52593;42.648;23.332;2023-10-13T07:22:54;18.75;;;7.97;;
65831;SDS011;52593;42.648;23.332;2023-10-13T07:25:23;13.90;;;6.63;;
65831;SDS011;52593;42.648;23.332;2023-10-13T07:27:50;17.08;;;7.50;;
65831;SDS011;52593;42.648;23.332;2023-10-13T07:30:15;16.23;;;7.17;;
65831;SDS011;52593;42.648;23.332;2023-10-13T07:32:45;14.95;;;7.90;;
65831;SDS011;52593;42.648;23.332;2023-10-13T07:35:11;14.23;;;7.03;;
65831;SDS011;52593;42.648;23.332;2023-10-13T07:37:41;13.70;;;6.83;;
65831;SDS011;52593;42.648;23.332;2023-10-13T07:40:08;13.52;;;7.28;;
65831;SDS011;52593;42.648;23.332;2023-10-13T07:42:54;14.45;;;5.97;;
65831;SDS011;52593;42.648;23.332;2023-10-13T07:45:28;12.70;;;5.75;;
65831;SDS011;52593;42.648;23.332;2023-10-13T07:48:04;13.82;;;6.30;;
65831;SDS011;52593;42.648;23.332;2023-10-13T07:53:41;15.90;;;7.20;;
65831;SDS011;52593;42.648;23.332;2023-10-13T07:56:11;18.85;;;7.20;;
65831;SDS011;52593;42.648;23.332;2023-10-13T07:58:37;14.27;;;6.35;;
65831;SDS011;52593;42.648;23.332;2023-10-13T08:01:18;13.60;;;6.15;;
65831;SDS011;52593;42.648;23.332;2023-10-13T08:03:45;14.40;;;6.47;;
65831;SDS011;52593;42.648;23.332;2023-10-13T08:06:17;14.85;;;7.03;;
65831;SDS011;52593;42.648;23.332;2023-10-13T08:08:43;14.93;;;6.43;;
65831;SDS011;52593;42.648;23.332;2023-10-13T08:11:12;18.38;;;7.03;;
65831;SDS011;52593;42.648;23.332;2023-10-13T08:13:48;15.07;;;6.90;;
65831;SDS011;52593;42.648;23.332;2023-10-13T08:16:39;20.33;;;6.53;;
65831;SDS011;52593;42.648;23.332;2023-10-13T08:19:12;15.75;;;6.82;;
65831;SDS011;52593;42.648;23.332;2023-10-13T08:21:40;17.45;;;7.18;;
65831;SDS011;52593;42.648;23.332;2023-10-13T08:24:14;16.23;;;7.30;;
65831;SDS011;52593;42.648;23.332;2023-10-13T08:26:40;15.80;;;7.18;;
65831;SDS011;52593;42.648;23.332;2023-10-13T08:29:24;13.13;;;6.13;;
65831;SDS011;52593;42.648;23.332;2023-10-13T08:31:52;13.20;;;5.72;;
65831;SDS011;52593;42.648;23.332;2023-10-13T08:34:37;11.77;;;5.03;;
65831;SDS011;52593;42.648;23.332;2023-10-13T08:37:12;16.52;;;6.65;;
65831;SDS011;52593;42.648;23.332;2023-10-13T08:39:44;13.43;;;5.97;;
65831;SDS011;52593;42.648;23.332;2023-10-13T08:42:38;16.00;;;6.17;;
65831;SDS011;52593;42.648;23.332;2023-10-13T08:45:07;15.85;;;6.40;;
65831;SDS011;52593;42.648;23.332;2023-10-13T08:48:06;13.93;;;6.00;;
65831;SDS011;52593;42.648;23.332;2023-10-13T08:50:44;14.95;;;6.13;;
65831;SDS011;52593;42.648;23.332;2023-10-13T08:53:27;15.43;;;6.07;;
65831;SDS011;52593;42.648;23.332;2023-10-13T08:56:04;14.77;;;6.30;;
65831;SDS011;52593;42.648;23.332;2023-10-13T08:58:53;14.85;;;6.38;;
65831;SDS011;52593;42.648;23.332;2023-10-13T09:01:26;14.90;;;6.57;;
65831;SDS011;52593;42.648;23.332;2023-10-13T09:04:24;13.95;;;6.18;;
65831;SDS011;52593;42.648;23.332;2023-10-13T09:07:05;15.88;;;6.22;;
65831;SDS011;52593;42.648;23.332;2023-10-13T09:09:31;14.95;;;5.93;;
65831;SDS011;52593;42.648;23.332;2023-10-13T09:12:27;14.07;;;7.03;;
65831;SDS011;52593;42.648;23.332;2023-10-13T09:14:58;15.03;;;6.43;;
65831;SDS011;52593;42.648;23.332;2023-10-13T09:17:42;16.77;;;6.85;;
65831;SDS011;52593;42.648;23.332;2023-10-13T09:20:31;16.20;;;7.07;;
65831;SDS011;52593;42.648;23.332;2023-10-13T09:23:19;13.40;;;6.68;;
65831;SDS011;52593;42.648;23.332;2023-10-13T09:25:49;15.50;;;7.10;;
65831;SDS011;52593;42.648;23.332;2023-10-13T09:28:34;16.73;;;7.57;;
65831;SDS011;52593;42.648;23.332;2023-10-13T09:31:02;14.52;;;6.45;;
65831;SDS011;52593;42.648;23.332;2023-10-13T09:33:32;16.25;;;7.13;;
65831;SDS011;52593;42.648;23.332;2023-10-13T09:36:01;15.07;;;6.53;;
65831;SDS011;52593;42.648;23.332;2023-10-13T09:38:29;15.70;;;7.13;;
65831;SDS011;52593;42.648;23.332;2023-10-13T09:40:58;12.53;;;6.33;;
65831;SDS011;52593;42.648;23.332;2023-10-13T09:43:27;15.90;;;6.00;;
65831;SDS011;52593;42.648;23.332;2023-10-13T09:45:59;11.10;;;5.07;;
65831;SDS011;52593;42.648;23.332;2023-10-13T09:48:43;11.68;;;5.75;;
65831;SDS011;52593;42.648;23.332;2023-10-13T09:51:18;13.52;;;6.22;;
65831;SDS011;52593;42.648;23.332;2023-10-13T09:53:55;14.67;;;5.80;;
65831;SDS011;52593;42.648;23.332;2023-10-13T09:56:27;10.77;;;4.35;;
65831;SDS011;52593;42.648;23.332;2023-10-13T10:01:36;11.18;;;4.70;;
65831;SDS011;52593;42.648;23.332;2023-10-13T10:04:15;12.85;;;5.18;;
65831;SDS011;52593;42.648;23.332;2023-10-13T10:09:18;13.48;;;5.75;;
65831;SDS011;52593;42.648;23.332;2023-10-13T10:15:06;12.30;;;4.10;;
65831;SDS011;52593;42.648;23.332;2023-10-13T10:17:42;7.65;;;3.78;;
65831;SDS011;52593;42.648;23.332;2023-10-13T10:20:09;12.17;;;4.30;;
65831;SDS011;52593;42.648;23.332;2023-10-13T10:22:40;9.30;;;4.20;;
65831;SDS011;52593;42.648;23.332;2023-10-13T10:25:13;10.35;;;3.70;;
65831;SDS011;52593;42.648;23.332;2023-10-13T10:27:57;11.77;;;4.00;;
65831;SDS011;52593;42.648;23.332;2023-10-13T10:30:24;15.05;;;4.00;;
65831;SDS011;52593;42.648;23.332;2023-10-13T10:32:57;11.57;;;3.43;;
65831;SDS011;52593;42.648;23.332;2023-10-13T10:35:26;9.15;;;4.10;;
65831;SDS011;52593;42.648;23.332;2023-10-13T10:37:58;7.28;;;3.35;;
65831;SDS011;52593;42.648;23.332;2023-10-13T10:40:47;6.03;;;1.95;;
65831;SDS011;52593;42.648;23.332;2023-10-13T10:43:17;5.07;;;1.60;;
65831;SDS011;52593;42.648;23.332;2023-10-13T10:45:47;6.93;;;2.83;;
65831;SDS011;52593;42.648;23.332;2023-10-13T10:48:16;6.20;;;2.33;;
65831;SDS011;52593;42.648;23.332;2023-10-13T10:50:52;7.40;;;2.30;;
65831;SDS011;52593;42.648;23.332;2023-10-13T10:53:21;7.43;;;2.50;;
65831;SDS011;52593;42.648;23.332;2023-10-13T10:56:08;5.68;;;1.80;;
65831;SDS011;52593;42.648;23.332;2023-10-13T10:58:58;8.07;;;2.83;;
65831;SDS011;52593;42.648;23.332;2023-10-13T11:01:27;6.22;;;2.53;;
65831;SDS011;52593;42.648;23.332;2023-10-13T11:04:04;7.68;;;2.53;;
65831;SDS011;52593;42.648;23.332;2023-10-13T11:07:00;7.65;;;2.35;;
65831;SDS011;52593;42.648;23.332;2023-10-13T11:09:26;6.38;;;1.73;;
65831;SDS011;52593;42.648;23.332;2023-10-13T11:12:14;5.37;;;1.80;;
65831;SDS011;52593;42.648;23.332;2023-10-13T11:15:10;5.57;;;2.22;;
65831;SDS011;52593;42.648;23.332;2023-10-13T11:17:50;6.50;;;1.85;;
65831;SDS011;52593;42.648;23.332;2023-10-13T11:20:19;6.70;;;2.00;;
65831;SDS011;52593;42.648;23.332;2023-10-13T11:22:51;9.73;;;2.30;;
65831;SDS011;52593;42.648;23.332;2023-10-13T11:25:21;5.57;;;2.13;;
65831;SDS011;52593;42.648;23.332;2023-10-13T11:27:48;5.43;;;2.17;;
65831;SDS011;52593;42.648;23.332;2023-10-13T11:30:14;6.00;;;2.00;;
65831;SDS011;52593;42.648;23.332;2023-10-13T11:33:00;7.18;;;1.63;;
65831;SDS011;52593;42.648;23.332;2023-10-13T11:35:30;6.53;;;1.90;;
65831;SDS011;52593;42.648;23.332;2023-10-13T11:38:18;4.28;;;1.35;;
65831;SDS011;52593;42.648;23.332;2023-10-13T11:40:56;8.70;;;2.63;;
65831;SDS011;52593;42.648;23.332;2023-10-13T11:43:50;6.00;;;2.10;;
65831;SDS011;52593;42.648;23.332;2023-10-13T11:46:18;6.35;;;1.80;;
65831;SDS011;52593;42.648;23.332;2023-10-13T11:51:38;6.65;;;1.90;;
65831;SDS011;52593;42.648;23.332;2023-10-13T11:54:04;6.10;;;1.65;;
65831;SDS011;52593;42.648;23.332;2023-10-13T11:56:30;5.00;;;1.53;;
65831;SDS011;52593;42.648;23.332;2023-10-13T11:58:55;6.13;;;2.10;;
65831;SDS011;52593;42.648;23.332;2023-10-13T12:01:26;5.32;;;1.80;;
65831;SDS011;52593;42.648;23.332;2023-10-13T12:04:12;6.55;;;1.90;;
65831;SDS011;52593;42.648;23.332;2023-10-13T12:06:57;4.75;;;1.95;;
65831;SDS011;52593;42.648;23.332;2023-10-13T12:09:42;5.13;;;1.75;;
65831;SDS011;52593;42.648;23.332;2023-10-13T12:12:23;6.67;;;1.80;;
65831;SDS011;52593;42.648;23.332;2023-10-13T12:14:50;6.05;;;1.80;;
65831;SDS011;52593;42.648;23.332;2023-10-13T12:19:59;6.72;;;2.22;;
65831;SDS011;52593;42.648;23.332;2023-10-13T12:22:35;5.25;;;1.50;;
65831;SDS011;52593;42.648;23.332;2023-10-13T12:25:04;6.63;;;1.93;;
65831;SDS011;52593;42.648;23.332;2023-10-13T12:27:43;6.65;;;1.60;;
65831;SDS011;52593;42.648;23.332;2023-10-13T12:30:15;5.28;;;1.27;;
65831;SDS011;52593;42.648;23.332;2023-10-13T12:32:47;5.20;;;1.58;;
65831;SDS011;52593;42.648;23.332;2023-10-13T12:35:24;5.85;;;1.90;;
65831;SDS011;52593;42.648;23.332;2023-10-13T12:38:00;8.43;;;1.50;;
65831;SDS011;52593;42.648;23.332;2023-10-13T12:40:41;5.82;;;2.20;;
65831;SDS011;52593;42.648;23.332;2023-10-13T12:43:25;7.82;;;2.10;;
65831;SDS011;52593;42.648;23.332;2023-10-13T12:46:09;5.97;;;1.80;;
65831;SDS011;52593;42.648;23.332;2023-10-13T12:48:53;6.55;;;2.40;;
65831;SDS011;52593;42.648;23.332;2023-10-13T12:51:29;6.87;;;2.63;;
65831;SDS011;52593;42.648;23.332;2023-10-13T12:53:57;7.28;;;2.75;;
65831;SDS011;52593;42.648;23.332;2023-10-13T12:57:01;5.57;;;2.08;;
65831;SDS011;52593;42.648;23.332;2023-10-13T12:59:27;5.07;;;1.65;;
65831;SDS011;52593;42.648;23.332;2023-10-13T13:01:53;6.73;;;1.73;;
65831;SDS011;52593;42.648;23.332;2023-10-13T13:04:18;6.20;;;2.13;;
65831;SDS011;52593;42.648;23.332;2023-10-13T13:06:47;6.13;;;1.73;;
65831;SDS011;52593;42.648;23.332;2023-10-13T13:09:14;6.03;;;1.95;;
65831;SDS011;52593;42.648;23.332;2023-10-13T13:11:39;6.03;;;2.00;;
65831;SDS011;52593;42.648;23.332;2023-10-13T13:14:08;7.68;;;2.30;;
65831;SDS011;52593;42.648;23.332;2023-10-13T13:16:34;6.38;;;2.40;;
65831;SDS011;52593;42.648;23.332;2023-10-13T13:19:03;5.50;;;2.10;;
65831;SDS011;52593;42.648;23.332;2023-10-13T13:21:35;4.65;;;1.80;;
65831;SDS011;52593;42.648;23.332;2023-10-13T13:24:01;6.68;;;2.38;;
65831;SDS011;52593;42.648;23.332;2023-10-13T13:26:29;4.82;;;2.20;;
65831;SDS011;52593;42.648;23.332;2023-10-13T13:28:56;13.02;;;5.78;;
65831;SDS011;52593;42.648;23.332;2023-10-13T13:31:22;5.13;;;1.93;;
65831;SDS011;52593;42.648;23.332;2023-10-13T13:33:54;6.13;;;2.20;;
65831;SDS011;52593;42.648;23.332;2023-10-13T13:36:19;4.97;;;2.00;;
65831;SDS011;52593;42.648;23.332;2023-10-13T13:39:05;4.93;;;2.00;;
65831;SDS011;52593;42.648;23.332;2023-10-13T13:41:31;6.32;;;2.42;;
65831;SDS011;52593;42.648;23.332;2023-10-13T13:43:58;7.03;;;3.60;;
65831;SDS011;52593;42.648;23.332;2023-10-13T13:46:38;7.07;;;2.83;;
65831;SDS011;52593;42.648;23.332;2023-10-13T13:49:06;5.43;;;3.03;;
65831;SDS011;52593;42.648;23.332;2023-10-13T13:51:32;5.28;;;2.60;;
65831;SDS011;52593;42.648;23.332;2023-10-13T13:53:59;5.20;;;2.92;;
65831;SDS011;52593;42.648;23.332;2023-10-13T13:56:25;5.78;;;2.80;;
65831;SDS011;52593;42.648;23.332;2023-10-13T13:58:52;6.88;;;3.10;;
65831;SDS011;52593;42.648;23.332;2023-10-13T14:01:19;6.20;;;2.87;;
65831;SDS011;52593;42.648;23.332;2023-10-13T14:03:50;6.15;;;3.10;;
65831;SDS011;52593;42.648;23.332;2023-10-13T14:06:20;6.63;;;2.70;;
65831;SDS011;52593;42.648;23.332;2023-10-13T14:08:53;7.20;;;2.50;;
65831;SDS011;52593;42.648;23.332;2023-10-13T14:11:20;5.47;;;2.63;;
65831;SDS011;52593;42.648;23.332;2023-10-13T14:14:05;5.90;;;2.57;;
65831;SDS011;52593;42.648;23.332;2023-10-13T14:16:54;6.38;;;2.70;;
65831;SDS011;52593;42.648;23.332;2023-10-13T14:19:27;7.80;;;2.40;;
65831;SDS011;52593;42.648;23.332;2023-10-13T14:21:56;4.83;;;2.20;;
65831;SDS011;52593;42.648;23.332;2023-10-13T14:24:22;5.00;;;2.20;;
65831;SDS011;52593;42.648;23.332;2023-10-13T14:26:58;5.72;;;2.35;;
65831;SDS011;52593;42.648;23.332;2023-10-13T14:29:43;5.43;;;2.10;;
65831;SDS011;52593;42.648;23.332;2023-10-13T14:32:13;7.82;;;3.10;;
65831;SDS011;52593;42.648;23.332;2023-10-13T14:34:43;6.50;;;2.33;;
65831;SDS011;52593;42.648;23.332;2023-10-13T14:37:09;8.13;;;2.30;;
65831;SDS011;52593;42.648;23.332;2023-10-13T14:39:40;5.68;;;1.90;;
65831;SDS011;52593;42.648;23.332;2023-10-13T14:42:06;8.02;;;2.35;;
65831;SDS011;52593;42.648;23.332;2023-10-13T14:44:35;6.97;;;2.23;;
65831;SDS011;52593;42.648;23.332;2023-10-13T14:47:02;5.22;;;1.63;;
65831;SDS011;52593;42.648;23.332;2023-10-13T14:49:30;5.65;;;1.90;;
65831;SDS011;52593;42.648;23.332;2023-10-13T14:51:55;7.13;;;2.20;;
65831;SDS011;52593;42.648;23.332;2023-10-13T14:54:24;5.95;;;2.40;;
65831;SDS011;52593;42.648;23.332;2023-10-13T14:56:59;6.88;;;2.13;;
65831;SDS011;52593;42.648;23.332;2023-10-13T14:59:29;6.57;;;2.10;;
65831;SDS011;52593;42.648;23.332;2023-10-13T15:02:03;7.05;;;2.10;;
65831;SDS011;52593;42.648;23.332;2023-10-13T15:04:29;8.20;;;2.17;;
65831;SDS011;52593;42.648;23.332;2023-10-13T15:06:57;5.23;;;1.83;;
65831;SDS011;52593;42.648;23.332;2023-10-13T15:09:24;6.70;;;2.08;;
65831;SDS011;52593;42.648;23.332;2023-10-13T15:11:50;7.50;;;2.97;;
65831;SDS011;52593;42.648;23.332;2023-10-13T15:14:18;6.80;;;1.90;;
65831;SDS011;52593;42.648;23.332;2023-10-13T15:16:45;6.05;;;2.15;;
65831;SDS011;52593;42.648;23.332;2023-10-13T15:19:11;5.43;;;1.98;;
65831;SDS011;52593;42.648;23.332;2023-10-13T15:21:37;6.27;;;2.07;;
65831;SDS011;52593;42.648;23.332;2023-10-13T15:24:05;6.07;;;1.95;;
65831;SDS011;52593;42.648;23.332;2023-10-13T15:26:46;4.82;;;1.90;;
65831;SDS011;52593;42.648;23.332;2023-10-13T15:29:15;7.90;;;3.03;;
65831;SDS011;52593;42.648;23.332;2023-10-13T15:31:42;9.00;;;2.90;;
65831;SDS011;52593;42.648;23.332;2023-10-13T15:34:25;8.95;;;3.03;;